Time,TemperatureF,DewpointF,PressureIn,WindDirection,WindDirectionDegrees,WindSpeedMPH,WindSpeedGustMPH,Humidity,HourlyPrecipIn,Conditions,Clouds,dailyrainin,SoftwareType,DateUTC
2013-03-04 00:14:00,49.5,49.0,29.91,South,180,3.7,-999.0,98,-99.99,,,0.00,Acu-Link.com,2013-03-04 08:14:00,
2013-03-04 00:29:00,49.1,48.6,29.92,South,180,0.0,-999.0,98,-99.99,,,0.00,Acu-Link.com,2013-03-04 08:29:00,
2013-03-04 00:44:00,48.9,48.4,29.92,South,180,0.0,-999.0,98,-99.99,,,0.00,Acu-Link.com,2013-03-04 08:44:00,
2013-03-04 00:59:00,48.4,47.9,29.92,SSE,157,0.0,-999.0,98,-99.99,,,0.00,Acu-Link.com,2013-03-04 08:59:00,
2013-03-04 01:19:00,48.4,47.9,29.93,SSE,157,2.2,-999.0,98,-99.99,,,0.00,Acu-Link.com,2013-03-04 09:19:00,
2013-03-04 01:35:00,48.2,47.7,29.93,South,180,0.0,-999.0,98,-99.99,,,0.00,Acu-Link.com,2013-03-04 09:35:00,
2013-03-04 01:50:00,47.7,47.2,29.94,South,180,0.0,-999.0,98,-99.99,,,0.00,Acu-Link.com,2013-03-04 09:50:00,
2013-03-04 02:05:00,47.3,46.8,29.94,South,180,0.0,-999.0,98,-99.99,,,0.00,Acu-Link.com,2013-03-04 10:05:00,
2013-03-04 02:20:00,47.1,46.6,29.95,South,180,0.0,-999.0,98,-99.99,,,0.00,Acu-Link.com,2013-03-04 10:20:00,
2013-03-04 02:35:00,46.6,46.1,29.95,South,180,0.0,-999.0,98,-99.99,,,0.00,Acu-Link.com,2013-03-04 10:35:00,
2013-03-04 02:50:00,46.4,45.9,29.94,SSW,202,0.0,-999.0,98,-99.99,,,0.00,Acu-Link.com,2013-03-04 10:50:00,
2013-03-04 03:05:00,46.2,45.7,29.95,SSW,202,0.0,-999.0,98,-99.99,,,0.00,Acu-Link.com,2013-03-04 11:05:00,
2013-03-04 03:20:00,46.0,45.5,29.94,SSW,202,0.0,-999.0,98,-99.99,,,0.00,Acu-Link.com,2013-03-04 11:20:00,
2013-03-04 03:35:00,46.0,45.5,29.94,SSE,157,2.2,-999.0,98,-99.99,,,0.00,Acu-Link.com,2013-03-04 11:35:00,
2013-03-04 03:50:00,46.0,45.5,29.95,SSE,157,1.1,-999.0,98,-99.99,,,0.00,Acu-Link.com,2013-03-04 11:50:00,
2013-03-04 04:06:00,45.7,45.2,29.94,SSE,157,1.7,-999.0,98,-99.99,,,0.00,Acu-Link.com,2013-03-04 12:06:00,
2013-03-04 04:21:00,45.5,45.0,29.95,South,180,0.0,-999.0,98,-99.99,,,0.00,Acu-Link.com,2013-03-04 12:21:00,
2013-03-04 04:36:00,45.3,44.8,29.94,South,180,0.0,-999.0,98,-99.99,,,0.00,Acu-Link.com,2013-03-04 12:36:00,
2013-03-04 05:06:00,45.1,44.6,29.95,South,180,0.0,-999.0,98,-99.99,,,0.00,Acu-Link.com,2013-03-04 13:06:00,
2013-03-04 05:21:00,45.0,44.5,29.95,South,180,0.0,-999.0,98,-99.99,,,0.00,Acu-Link.com,2013-03-04 13:21:00,
2013-03-04 05:36:00,44.8,44.3,29.95,SSW,202,0.0,-999.0,98,-99.99,,,0.00,Acu-Link.com,2013-03-04 13:36:00,
2013-03-04 05:51:00,44.8,44.3,29.95,South,180,0.0,-999.0,98,-99.99,,,0.00,Acu-Link.com,2013-03-04 13:51:00,
2013-03-04 06:06:00,44.6,44.1,29.95,South,180,0.0,-999.0,98,-99.99,,,0.00,Acu-Link.com,2013-03-04 14:06:00,
2013-03-04 06:22:00,44.6,44.1,29.97,South,180,1.7,-999.0,98,-99.99,,,0.00,Acu-Link.com,2013-03-04 14:22:00,
2013-03-04 06:37:00,44.8,44.3,29.97,SSW,202,0.0,-999.0,98,-99.99,,,0.00,Acu-Link.com,2013-03-04 14:37:00,
2013-03-04 06:52:00,45.1,44.6,29.97,South,180,1.7,-999.0,98,-99.99,,,0.00,Acu-Link.com,2013-03-04 14:52:00,
2013-03-04 07:07:00,45.7,45.2,29.96,SSW,202,2.7,-999.0,98,-99.99,,,0.00,Acu-Link.com,2013-03-04 15:07:00,
2013-03-04 07:22:00,46.2,45.7,29.97,SW,225,1.7,-999.0,98,-99.99,,,0.00,Acu-Link.com,2013-03-04 15:22:00,
2013-03-04 07:37:00,46.9,46.4,29.97,South,180,1.7,-999.0,98,-99.99,,,0.00,Acu-Link.com,2013-03-04 15:37:00,
2013-03-04 07:52:00,47.8,47.3,29.97,SSE,157,0.0,-999.0,98,-99.99,,,0.00,Acu-Link.com,2013-03-04 15:52:00,
2013-03-04 08:07:00,48.2,47.7,29.97,SSE,157,2.7,-999.0,98,-99.99,,,0.00,Acu-Link.com,2013-03-04 16:07:00,
2013-03-04 08:22:00,48.4,47.9,29.97,South,180,3.2,-999.0,98,-99.99,,,0.00,Acu-Link.com,2013-03-04 16:22:00,
2013-03-04 08:38:00,49.5,49.0,29.99,SSE,157,2.7,-999.0,98,-99.99,,,0.00,Acu-Link.com,2013-03-04 16:38:00,
2013-03-04 08:53:00,50.0,49.5,30.00,SSE,157,1.7,-999.0,98,-99.99,,,0.00,Acu-Link.com,2013-03-04 16:53:00,
2013-03-04 09:08:00,51.6,50.8,29.99,SSW,202,4.7,-999.0,97,-99.99,,,0.00,Acu-Link.com,2013-03-04 17:08:00,
2013-03-04 09:23:00,52.2,50.8,29.98,SSW,202,3.2,-999.0,95,-99.99,,,0.00,Acu-Link.com,2013-03-04 17:23:00,
2013-03-04 09:38:00,53.4,51.4,29.98,SSE,157,4.2,-999.0,93,-99.99,,,0.00,Acu-Link.com,2013-03-04 17:38:00,
2013-03-04 09:53:00,54.3,51.4,29.99,South,180,4.7,-999.0,90,-99.99,,,0.00,Acu-Link.com,2013-03-04 17:53:00,
2013-03-04 10:08:00,55.9,52.1,29.98,SE,135,3.7,-999.0,87,-99.99,,,0.00,Acu-Link.com,2013-03-04 18:08:00,
2013-03-04 10:23:00,55.8,52.3,29.98,SSW,202,4.2,-999.0,88,-99.99,,,0.00,Acu-Link.com,2013-03-04 18:23:00,
2013-03-04 10:38:00,57.6,53.1,29.97,South,180,3.2,-999.0,85,-99.99,,,0.00,Acu-Link.com,2013-03-04 18:38:00,
2013-03-04 10:54:00,58.8,53.6,29.97,South,180,4.2,-999.0,83,-99.99,,,0.00,Acu-Link.com,2013-03-04 18:54:00,
2013-03-04 11:09:00,61.3,54.4,29.97,South,180,4.2,-999.0,78,-99.99,,,0.00,Acu-Link.com,2013-03-04 19:09:00,
2013-03-04 11:24:00,63.0,55.3,29.97,South,180,1.7,-999.0,76,-99.99,,,0.00,Acu-Link.com,2013-03-04 19:24:00,
2013-03-04 11:39:00,63.0,54.2,29.96,ESE,112,3.7,-999.0,73,-99.99,,,0.00,Acu-Link.com,2013-03-04 19:39:00,
2013-03-04 11:54:00,65.3,55.3,29.96,SW,225,2.2,-999.0,70,-99.99,,,0.00,Acu-Link.com,2013-03-04 19:54:00,
2013-03-04 12:09:00,66.0,55.5,29.95,SSE,157,0.0,-999.0,69,-99.99,,,0.00,Acu-Link.com,2013-03-04 20:09:00,
2013-03-04 12:24:00,67.8,56.4,29.96,South,180,0.0,-999.0,67,-99.99,,,0.00,Acu-Link.com,2013-03-04 20:24:00,
2013-03-04 12:39:00,68.4,56.2,29.94,ESE,112,0.0,-999.0,65,-99.99,,,0.00,Acu-Link.com,2013-03-04 20:39:00,
2013-03-04 12:54:00,70.0,55.9,29.93,WSW,247,1.1,-999.0,61,-99.99,,,0.00,Acu-Link.com,2013-03-04 20:54:00,
2013-03-04 13:10:00,67.5,54.5,29.91,SSW,202,3.7,-999.0,63,-99.99,,,0.00,Acu-Link.com,2013-03-04 21:10:00,
2013-03-04 13:25:00,66.6,54.9,29.91,South,180,1.7,-999.0,66,-99.99,,,0.00,Acu-Link.com,2013-03-04 21:25:00,
2013-03-04 13:40:00,67.1,55.4,29.90,South,180,3.7,-999.0,66,-99.99,,,0.00,Acu-Link.com,2013-03-04 21:40:00,
2013-03-04 13:55:00,66.7,55.8,29.90,SW,225,2.7,-999.0,68,-99.99,,,0.00,Acu-Link.com,2013-03-04 21:55:00,
2013-03-04 14:10:00,66.2,55.3,29.88,SSW,202,2.7,-999.0,68,-99.99,,,0.00,Acu-Link.com,2013-03-04 22:10:00,
2013-03-04 14:25:00,65.7,55.2,29.88,West,270,0.0,-999.0,69,-99.99,,,0.00,Acu-Link.com,2013-03-04 22:25:00,
2013-03-04 14:40:00,66.2,55.3,29.88,SSE,157,4.7,-999.0,68,-99.99,,,0.00,Acu-Link.com,2013-03-04 22:40:00,
2013-03-04 14:55:00,66.7,55.4,29.87,South,180,3.7,-999.0,67,-99.99,,,0.00,Acu-Link.com,2013-03-04 22:55:00,
2013-03-04 15:10:00,66.9,56.0,29.88,SSW,202,6.3,-999.0,68,-99.99,,,0.00,Acu-Link.com,2013-03-04 23:10:00,
2013-03-04 15:26:00,67.1,56.2,29.87,SSW,202,0.0,-999.0,68,-99.99,,,0.00,Acu-Link.com,2013-03-04 23:26:00,
2013-03-04 15:41:00,67.1,56.6,29.87,SW,225,0.0,-999.0,69,-99.99,,,0.00,Acu-Link.com,2013-03-04 23:41:00,
2013-03-04 15:56:00,66.9,56.0,29.87,ESE,112,0.0,-999.0,68,-99.99,,,0.00,Acu-Link.com,2013-03-04 23:56:00,
2013-03-04 16:11:00,66.4,55.9,29.85,WSW,247,1.7,-999.0,69,-99.99,,,0.00,Acu-Link.com,2013-03-05 00:11:00,
2013-03-04 16:26:00,66.6,56.1,29.87,SW,225,1.7,-999.0,69,-99.99,,,0.00,Acu-Link.com,2013-03-05 00:26:00,
2013-03-04 16:41:00,66.6,55.3,29.86,WSW,247,0.0,-999.0,67,-99.99,,,0.00,Acu-Link.com,2013-03-05 00:41:00,
2013-03-04 16:56:00,65.3,54.1,29.86,South,180,0.0,-999.0,67,-99.99,,,0.00,Acu-Link.com,2013-03-05 00:56:00,
2013-03-04 17:11:00,64.6,54.2,29.88,South,180,0.0,-999.0,69,-99.99,,,0.00,Acu-Link.com,2013-03-05 01:11:00,
2013-03-04 17:26:00,63.5,53.1,29.87,SSW,202,0.0,-999.0,69,-99.99,,,0.00,Acu-Link.com,2013-03-05 01:26:00,
2013-03-04 17:41:00,62.2,53.4,29.86,South,180,4.2,-999.0,73,-99.99,,,0.00,Acu-Link.com,2013-03-05 01:41:00,
2013-03-04 17:57:00,61.0,53.4,29.87,SSE,157,1.7,-999.0,76,-99.99,,,0.00,Acu-Link.com,2013-03-05 01:57:00,
2013-03-04 18:12:00,59.7,53.2,29.87,South,180,0.0,-999.0,79,-99.99,,,0.00,Acu-Link.com,2013-03-05 02:12:00,
2013-03-04 18:27:00,59.0,52.5,29.86,SSW,202,3.2,-999.0,79,-99.99,,,0.00,Acu-Link.com,2013-03-05 02:27:00,
2013-03-04 18:42:00,58.5,51.7,29.86,South,180,1.7,-999.0,78,-99.99,,,0.00,Acu-Link.com,2013-03-05 02:42:00,
2013-03-04 18:57:00,57.9,51.4,29.87,South,180,0.0,-999.0,79,-99.99,,,0.00,Acu-Link.com,2013-03-05 02:57:00,
2013-03-04 19:12:00,56.8,51.0,29.88,South,180,2.2,-999.0,81,-99.99,,,0.00,Acu-Link.com,2013-03-05 03:12:00,
2013-03-04 19:27:00,56.7,51.6,29.85,South,180,2.7,-999.0,83,-99.99,,,0.00,Acu-Link.com,2013-03-05 03:27:00,
2013-03-04 19:42:00,55.9,51.1,29.84,South,180,2.2,-999.0,84,-99.99,,,0.00,Acu-Link.com,2013-03-05 03:42:00,
2013-03-04 19:57:00,55.4,51.3,29.82,South,180,2.2,-999.0,86,-99.99,,,0.00,Acu-Link.com,2013-03-05 03:57:00,
2013-03-04 20:13:00,54.9,50.8,29.83,SSW,202,3.7,-999.0,86,-99.99,,,0.00,Acu-Link.com,2013-03-05 04:13:00,
2013-03-04 20:28:00,54.1,50.3,29.83,South,180,0.0,-999.0,87,-99.99,,,0.00,Acu-Link.com,2013-03-05 04:28:00,
2013-03-04 20:43:00,53.4,49.6,29.83,South,180,1.7,-999.0,87,-99.99,,,0.00,Acu-Link.com,2013-03-05 04:43:00,
2013-03-04 20:58:00,53.1,49.3,29.85,South,180,1.7,-999.0,87,-99.99,,,0.00,Acu-Link.com,2013-03-05 04:58:00,
2013-03-04 21:13:00,52.7,48.9,29.87,SSE,157,2.2,-999.0,87,-99.99,,,0.00,Acu-Link.com,2013-03-05 05:13:00,
2013-03-04 21:28:00,52.3,48.9,29.88,SSW,202,1.1,-999.0,88,-99.99,,,0.00,Acu-Link.com,2013-03-05 05:28:00,
2013-03-04 21:43:00,51.8,48.4,29.88,SSW,202,0.0,-999.0,88,-99.99,,,0.00,Acu-Link.com,2013-03-05 05:43:00,
2013-03-04 21:58:00,51.3,47.9,29.88,SSW,202,1.7,-999.0,88,-99.99,,,0.00,Acu-Link.com,2013-03-05 05:58:00,
2013-03-04 22:13:00,50.9,47.5,29.88,South,180,1.7,-999.0,88,-99.99,,,0.00,Acu-Link.com,2013-03-05 06:13:00,
2013-03-04 22:29:00,50.5,46.5,29.89,SSW,202,2.2,-999.0,86,-99.99,,,0.00,Acu-Link.com,2013-03-05 06:29:00,
2013-03-04 22:44:00,50.0,45.4,29.89,South,180,1.7,-999.0,84,-99.99,,,0.00,Acu-Link.com,2013-03-05 06:44:00,
2013-03-04 22:59:00,49.5,44.2,29.89,South,180,2.2,-999.0,82,-99.99,,,0.00,Acu-Link.com,2013-03-05 06:59:00,
2013-03-04 23:14:00,48.9,43.7,29.89,South,180,1.7,-999.0,82,-99.99,,,0.00,Acu-Link.com,2013-03-05 07:14:00,
2013-03-04 23:29:00,48.6,43.4,29.89,South,180,0.0,-999.0,82,-99.99,,,0.00,Acu-Link.com,2013-03-05 07:29:00,
2013-03-04 23:44:00,48.2,43.3,29.89,South,180,1.1,-999.0,83,-99.99,,,0.00,Acu-Link.com,2013-03-05 07:44:00,
2013-03-04 23:59:00,47.8,43.2,29.89,South,180,0.0,-999.0,84,-99.99,,,0.00,Acu-Link.com,2013-03-05 07:59:00,